sensor_id;sensor_type;location;lat;lon;timestamp;P1;durP1;ratioP1;P2;durP2;ratioP2
75548;SDS011;64133;56.002;37.208;2023-04-03T00:01:47;18.82;;;10.32;;
75548;SDS011;64133;56.002;37.208;2023-04-03T00:06:52;14.25;;;9.40;;
75548;SDS011;64133;56.002;37.208;2023-04-03T00:11:57;16.93;;;10.08;;
75548;SDS011;64133;56.002;37.208;2023-04-03T00:17:01;18.80;;;11.28;;
75548;SDS011;64133;56.002;37.208;2023-04-03T00:22:06;19.50;;;11.40;;
75548;SDS011;64133;56.002;37.208;2023-04-03T00:27:13;21.70;;;12.73;;
75548;SDS011;64133;56.002;37.208;2023-04-03T00:32:20;17.55;;;11.25;;
75548;SDS011;64133;56.002;37.208;2023-04-03T00:37:24;14.23;;;9.73;;
75548;SDS011;64133;56.002;37.208;2023-04-03T00:42:29;17.52;;;10.68;;
75548;SDS011;64133;56.002;37.208;2023-04-03T00:47:34;21.27;;;10.50;;
75548;SDS011;64133;56.002;37.208;2023-04-03T00:52:39;24.30;;;13.35;;
75548;SDS011;64133;56.002;37.208;2023-04-03T00:57:43;21.40;;;12.50;;
75548;SDS011;64133;56.002;37.208;2023-04-03T01:02:51;22.05;;;12.73;;
75548;SDS011;64133;56.002;37.208;2023-04-03T01:08:03;20.37;;;11.70;;
75548;SDS011;64133;56.002;37.208;2023-04-03T01:13:20;18.30;;;11.93;;
75548;SDS011;64133;56.002;37.208;2023-04-03T01:18:42;22.25;;;13.75;;
75548;SDS011;64133;56.002;37.208;2023-04-03T01:23:50;21.07;;;12.70;;
75548;SDS011;64133;56.002;37.208;2023-04-03T01:29:15;23.10;;;13.75;;
75548;SDS011;64133;56.002;37.208;2023-04-03T01:34:22;27.77;;;14.80;;
75548;SDS011;64133;56.002;37.208;2023-04-03T01:39:30;25.62;;;13.90;;
75548;SDS011;64133;56.002;37.208;2023-04-03T01:44:35;22.70;;;13.53;;
75548;SDS011;64133;56.002;37.208;2023-04-03T01:49:40;23.65;;;13.10;;
75548;SDS011;64133;56.002;37.208;2023-04-03T01:54:44;21.25;;;12.10;;
75548;SDS011;64133;56.002;37.208;2023-04-03T01:59:49;24.57;;;13.20;;
75548;SDS011;64133;56.002;37.208;2023-04-03T02:04:56;26.80;;;14.38;;
75548;SDS011;64133;56.002;37.208;2023-04-03T02:10:01;21.40;;;13.10;;
75548;SDS011;64133;56.002;37.208;2023-04-03T02:15:07;19.45;;;12.88;;
75548;SDS011;64133;56.002;37.208;2023-04-03T02:20:14;27.82;;;14.53;;
75548;SDS011;64133;56.002;37.208;2023-04-03T02:25:22;24.67;;;14.95;;
75548;SDS011;64133;56.002;37.208;2023-04-03T02:30:29;23.80;;;13.05;;
75548;SDS011;64133;56.002;37.208;2023-04-03T02:35:36;22.55;;;13.13;;
75548;SDS011;64133;56.002;37.208;2023-04-03T02:40:41;21.15;;;12.13;;
75548;SDS011;64133;56.002;37.208;2023-04-03T02:45:48;24.92;;;12.53;;
75548;SDS011;64133;56.002;37.208;2023-04-03T02:51:04;17.67;;;10.93;;
75548;SDS011;64133;56.002;37.208;2023-04-03T02:56:09;19.60;;;11.65;;
75548;SDS011;64133;56.002;37.208;2023-04-03T03:01:13;18.30;;;11.00;;
75548;SDS011;64133;56.002;37.208;2023-04-03T03:06:18;19.98;;;12.07;;
75548;SDS011;64133;56.002;37.208;2023-04-03T03:21:55;18.73;;;11.50;;
75548;SDS011;64133;56.002;37.208;2023-04-03T03:27:00;21.85;;;13.03;;
75548;SDS011;64133;56.002;37.208;2023-04-03T03:32:14;18.57;;;11.63;;
75548;SDS011;64133;56.002;37.208;2023-04-03T03:37:19;19.20;;;11.68;;
75548;SDS011;64133;56.002;37.208;2023-04-03T03:42:23;21.95;;;13.22;;
75548;SDS011;64133;56.002;37.208;2023-04-03T03:47:28;26.73;;;13.72;;
75548;SDS011;64133;56.002;37.208;2023-04-03T03:52:33;21.80;;;13.43;;
75548;SDS011;64133;56.002;37.208;2023-04-03T03:57:37;25.95;;;14.15;;
75548;SDS011;64133;56.002;37.208;2023-04-03T04:02:42;25.30;;;14.35;;
75548;SDS011;64133;56.002;37.208;2023-04-03T04:07:52;26.15;;;13.93;;
75548;SDS011;64133;56.002;37.208;2023-04-03T04:12:59;27.45;;;14.83;;
75548;SDS011;64133;56.002;37.208;2023-04-03T04:18:04;29.10;;;16.73;;
75548;SDS011;64133;56.002;37.208;2023-04-03T04:23:08;26.20;;;14.60;;
75548;SDS011;64133;56.002;37.208;2023-04-03T04:28:13;25.65;;;14.78;;
75548;SDS011;64133;56.002;37.208;2023-04-03T04:43:38;25.05;;;12.47;;
75548;SDS011;64133;56.002;37.208;2023-04-03T04:48:43;20.02;;;11.78;;
75548;SDS011;64133;56.002;37.208;2023-04-03T04:53:49;22.82;;;11.50;;
75548;SDS011;64133;56.002;37.208;2023-04-03T04:58:54;20.75;;;11.10;;
75548;SDS011;64133;56.002;37.208;2023-04-03T05:03:59;22.17;;;11.95;;
75548;SDS011;64133;56.002;37.208;2023-04-03T05:09:05;20.57;;;11.22;;
75548;SDS011;64133;56.002;37.208;2023-04-03T05:14:15;17.20;;;10.68;;
75548;SDS011;64133;56.002;37.208;2023-04-03T05:19:22;16.42;;;10.18;;
75548;SDS011;64133;56.002;37.208;2023-04-03T05:24:27;18.12;;;10.38;;
75548;SDS011;64133;56.002;37.208;2023-04-03T05:34:49;16.30;;;10.82;;
75548;SDS011;64133;56.002;37.208;2023-04-03T05:39:53;15.58;;;10.53;;
75548;SDS011;64133;56.002;37.208;2023-04-03T05:50:12;20.32;;;11.48;;
75548;SDS011;64133;56.002;37.208;2023-04-03T05:55:17;20.85;;;11.50;;
75548;SDS011;64133;56.002;37.208;2023-04-03T06:00:22;18.70;;;10.53;;
75548;SDS011;64133;56.002;37.208;2023-04-03T06:05:27;20.92;;;11.83;;
75548;SDS011;64133;56.002;37.208;2023-04-03T06:10:32;20.75;;;12.50;;
75548;SDS011;64133;56.002;37.208;2023-04-03T06:15:36;19.80;;;11.78;;
75548;SDS011;64133;56.002;37.208;2023-04-03T06:20:41;18.05;;;11.30;;
75548;SDS011;64133;56.002;37.208;2023-04-03T06:25:46;12.13;;;8.58;;
75548;SDS011;64133;56.002;37.208;2023-04-03T06:30:50;20.95;;;12.23;;
75548;SDS011;64133;56.002;37.208;2023-04-03T06:35:58;17.67;;;12.30;;
75548;SDS011;64133;56.002;37.208;2023-04-03T06:41:03;21.70;;;12.78;;
75548;SDS011;64133;56.002;37.208;2023-04-03T06:46:09;21.87;;;11.95;;
75548;SDS011;64133;56.002;37.208;2023-04-03T06:51:18;24.92;;;12.50;;
75548;SDS011;64133;56.002;37.208;2023-04-03T06:56:22;15.65;;;11.57;;
75548;SDS011;64133;56.002;37.208;2023-04-03T07:01:28;17.15;;;13.43;;
75548;SDS011;64133;56.002;37.208;2023-04-03T07:06:32;22.37;;;13.62;;
75548;SDS011;64133;56.002;37.208;2023-04-03T07:11:36;18.62;;;13.70;;
75548;SDS011;64133;56.002;37.208;2023-04-03T07:16:41;20.92;;;15.40;;
75548;SDS011;64133;56.002;37.208;2023-04-03T07:21:46;21.35;;;14.58;;
75548;SDS011;64133;56.002;37.208;2023-04-03T07:26:50;25.52;;;15.60;;
75548;SDS011;64133;56.002;37.208;2023-04-03T07:37:10;22.40;;;15.00;;
75548;SDS011;64133;56.002;37.208;2023-04-03T07:42:13;25.00;;;15.20;;
75548;SDS011;64133;56.002;37.208;2023-04-03T07:47:18;24.10;;;14.75;;
75548;SDS011;64133;56.002;37.208;2023-04-03T07:52:22;26.42;;;15.83;;
75548;SDS011;64133;56.002;37.208;2023-04-03T07:57:27;24.82;;;15.58;;
75548;SDS011;64133;56.002;37.208;2023-04-03T08:02:32;24.20;;;14.20;;
75548;SDS011;64133;56.002;37.208;2023-04-03T08:07:39;30.00;;;17.30;;
75548;SDS011;64133;56.002;37.208;2023-04-03T08:12:47;21.80;;;14.65;;
75548;SDS011;64133;56.002;37.208;2023-04-03T08:17:50;24.72;;;15.40;;
75548;SDS011;64133;56.002;37.208;2023-04-03T08:22:58;22.80;;;14.80;;
75548;SDS011;64133;56.002;37.208;2023-04-03T08:28:04;25.90;;;14.75;;
75548;SDS011;64133;56.002;37.208;2023-04-03T08:33:09;20.68;;;13.80;;
75548;SDS011;64133;56.002;37.208;2023-04-03T08:38:18;20.57;;;13.93;;
75548;SDS011;64133;56.002;37.208;2023-04-03T08:43:27;24.77;;;12.98;;
75548;SDS011;64133;56.002;37.208;2023-04-03T08:48:33;20.10;;;11.30;;
75548;SDS011;64133;56.002;37.208;2023-04-03T08:53:39;17.75;;;11.95;;
75548;SDS011;64133;56.002;37.208;2023-04-03T08:58:44;19.23;;;11.70;;
75548;SDS011;64133;56.002;37.208;2023-04-03T09:03:49;19.17;;;11.30;;
75548;SDS011;64133;56.002;37.208;2023-04-03T09:08:56;19.65;;;12.03;;
75548;SDS011;64133;56.002;37.208;2023-04-03T09:14:01;16.17;;;10.18;;
75548;SDS011;64133;56.002;37.208;2023-04-03T09:19:07;16.17;;;10.45;;
75548;SDS011;64133;56.002;37.208;2023-04-03T09:24:12;19.15;;;10.28;;
75548;SDS011;64133;56.002;37.208;2023-04-03T09:29:18;14.28;;;9.53;;
75548;SDS011;64133;56.002;37.208;2023-04-03T09:34:24;16.77;;;10.00;;
75548;SDS011;64133;56.002;37.208;2023-04-03T09:39:28;21.70;;;9.85;;
75548;SDS011;64133;56.002;37.208;2023-04-03T09:44:35;16.37;;;10.20;;
75548;SDS011;64133;56.002;37.208;2023-04-03T09:49:40;16.10;;;9.65;;
75548;SDS011;64133;56.002;37.208;2023-04-03T09:54:44;14.93;;;8.75;;
75548;SDS011;64133;56.002;37.208;2023-04-03T09:59:59;19.20;;;9.68;;
75548;SDS011;64133;56.002;37.208;2023-04-03T10:10:17;18.98;;;10.28;;
75548;SDS011;64133;56.002;37.208;2023-04-03T10:15:21;16.07;;;8.50;;
75548;SDS011;64133;56.002;37.208;2023-04-03T10:20:27;18.07;;;9.48;;
75548;SDS011;64133;56.002;37.208;2023-04-03T10:25:35;15.08;;;9.28;;
75548;SDS011;64133;56.002;37.208;2023-04-03T10:30:44;23.90;;;9.40;;
75548;SDS011;64133;56.002;37.208;2023-04-03T10:35:52;17.07;;;8.78;;
75548;SDS011;64133;56.002;37.208;2023-04-03T10:40:59;26.90;;;13.72;;
75548;SDS011;64133;56.002;37.208;2023-04-03T10:46:05;19.50;;;8.83;;
75548;SDS011;64133;56.002;37.208;2023-04-03T10:51:12;19.42;;;9.98;;
75548;SDS011;64133;56.002;37.208;2023-04-03T10:56:21;16.67;;;8.78;;
75548;SDS011;64133;56.002;37.208;2023-04-03T11:01:26;23.60;;;9.08;;
75548;SDS011;64133;56.002;37.208;2023-04-03T11:06:35;19.32;;;9.18;;
75548;SDS011;64133;56.002;37.208;2023-04-03T11:11:39;18.17;;;9.03;;
75548;SDS011;64133;56.002;37.208;2023-04-03T11:16:45;18.00;;;9.25;;
75548;SDS011;64133;56.002;37.208;2023-04-03T11:21:51;17.17;;;9.45;;
75548;SDS011;64133;56.002;37.208;2023-04-03T11:26:55;19.70;;;9.48;;
75548;SDS011;64133;56.002;37.208;2023-04-03T11:32:15;20.00;;;9.73;;
75548;SDS011;64133;56.002;37.208;2023-04-03T11:37:24;17.35;;;9.10;;
75548;SDS011;64133;56.002;37.208;2023-04-03T11:42:37;17.85;;;11.50;;
75548;SDS011;64133;56.002;37.208;2023-04-03T11:47:45;18.90;;;9.60;;
75548;SDS011;64133;56.002;37.208;2023-04-03T11:53:02;16.25;;;10.08;;
75548;SDS011;64133;56.002;37.208;2023-04-03T11:58:12;18.32;;;9.58;;
75548;SDS011;64133;56.002;37.208;2023-04-03T12:03:30;15.48;;;7.65;;
75548;SDS011;64133;56.002;37.208;2023-04-03T12:08:44;14.40;;;7.78;;
75548;SDS011;64133;56.002;37.208;2023-04-03T12:14:02;15.83;;;9.05;;
75548;SDS011;64133;56.002;37.208;2023-04-03T12:19:25;29.02;;;9.10;;
75548;SDS011;64133;56.002;37.208;2023-04-03T12:24:34;22.20;;;9.58;;
75548;SDS011;64133;56.002;37.208;2023-04-03T12:29:40;15.95;;;9.23;;
75548;SDS011;64133;56.002;37.208;2023-04-03T12:34:51;16.05;;;8.68;;
75548;SDS011;64133;56.002;37.208;2023-04-03T12:40:01;21.50;;;9.63;;
75548;SDS011;64133;56.002;37.208;2023-04-03T12:45:12;19.82;;;8.85;;
75548;SDS011;64133;56.002;37.208;2023-04-03T12:50:20;19.05;;;9.73;;
75548;SDS011;64133;56.002;37.208;2023-04-03T12:55:27;15.85;;;9.85;;
75548;SDS011;64133;56.002;37.208;2023-04-03T13:00:33;18.85;;;9.10;;
75548;SDS011;64133;56.002;37.208;2023-04-03T13:05:39;17.70;;;9.75;;
75548;SDS011;64133;56.002;37.208;2023-04-03T13:10:49;15.10;;;8.63;;
75548;SDS011;64133;56.002;37.208;2023-04-03T13:15:52;23.40;;;9.80;;
75548;SDS011;64133;56.002;37.208;2023-04-03T13:20:58;23.10;;;9.48;;
75548;SDS011;64133;56.002;37.208;2023-04-03T13:26:06;17.25;;;8.88;;
75548;SDS011;64133;56.002;37.208;2023-04-03T13:31:17;21.40;;;10.00;;
75548;SDS011;64133;56.002;37.208;2023-04-03T13:36:26;23.67;;;9.70;;
75548;SDS011;64133;56.002;37.208;2023-04-03T13:46:51;15.08;;;7.65;;
75548;SDS011;64133;56.002;37.208;2023-04-03T13:51:54;13.53;;;7.85;;
75548;SDS011;64133;56.002;37.208;2023-04-03T13:57:00;18.00;;;9.45;;
75548;SDS011;64133;56.002;37.208;2023-04-03T14:02:12;11.55;;;6.60;;
75548;SDS011;64133;56.002;37.208;2023-04-03T14:07:20;21.20;;;8.13;;
75548;SDS011;64133;56.002;37.208;2023-04-03T14:12:26;16.40;;;7.28;;
75548;SDS011;64133;56.002;37.208;2023-04-03T14:17:30;11.60;;;6.70;;
75548;SDS011;64133;56.002;37.208;2023-04-03T14:22:35;11.12;;;6.20;;
75548;SDS011;64133;56.002;37.208;2023-04-03T14:27:41;10.03;;;6.12;;
75548;SDS011;64133;56.002;37.208;2023-04-03T14:32:45;12.93;;;6.75;;
75548;SDS011;64133;56.002;37.208;2023-04-03T14:37:50;15.70;;;6.58;;
75548;SDS011;64133;56.002;37.208;2023-04-03T14:42:57;11.60;;;7.15;;
75548;SDS011;64133;56.002;37.208;2023-04-03T14:48:02;11.93;;;6.83;;
75548;SDS011;64133;56.002;37.208;2023-04-03T14:53:07;11.93;;;6.62;;
75548;SDS011;64133;56.002;37.208;2023-04-03T14:58:14;11.80;;;7.35;;
75548;SDS011;64133;56.002;37.208;2023-04-03T15:03:19;12.40;;;8.48;;
75548;SDS011;64133;56.002;37.208;2023-04-03T15:08:23;19.48;;;9.03;;
75548;SDS011;64133;56.002;37.208;2023-04-03T15:13:28;15.53;;;9.98;;
75548;SDS011;64133;56.002;37.208;2023-04-03T15:18:35;12.75;;;9.00;;
75548;SDS011;64133;56.002;37.208;2023-04-03T15:23:38;13.85;;;8.50;;
75548;SDS011;64133;56.002;37.208;2023-04-03T15:28:43;11.80;;;7.72;;
75548;SDS011;64133;56.002;37.208;2023-04-03T15:33:48;13.38;;;8.23;;
75548;SDS011;64133;56.002;37.208;2023-04-03T15:38:52;12.53;;;8.50;;
75548;SDS011;64133;56.002;37.208;2023-04-03T15:44:01;13.05;;;8.40;;
75548;SDS011;64133;56.002;37.208;2023-04-03T15:49:06;16.75;;;9.00;;
75548;SDS011;64133;56.002;37.208;2023-04-03T15:54:11;14.98;;;8.80;;
75548;SDS011;64133;56.002;37.208;2023-04-03T15:59:15;16.87;;;10.60;;
75548;SDS011;64133;56.002;37.208;2023-04-03T16:04:20;14.43;;;8.95;;
75548;SDS011;64133;56.002;37.208;2023-04-03T16:09:25;16.40;;;9.48;;
75548;SDS011;64133;56.002;37.208;2023-04-03T16:14:30;19.92;;;9.38;;
75548;SDS011;64133;56.002;37.208;2023-04-03T16:19:34;17.35;;;8.73;;
75548;SDS011;64133;56.002;37.208;2023-04-03T16:24:43;14.00;;;8.78;;
75548;SDS011;64133;56.002;37.208;2023-04-03T16:29:46;13.32;;;8.15;;
75548;SDS011;64133;56.002;37.208;2023-04-03T16:34:55;14.68;;;7.62;;
75548;SDS011;64133;56.002;37.208;2023-04-03T16:39:59;16.37;;;8.83;;
75548;SDS011;64133;56.002;37.208;2023-04-03T16:45:05;12.28;;;6.60;;
75548;SDS011;64133;56.002;37.208;2023-04-03T16:50:10;12.60;;;7.35;;
75548;SDS011;64133;56.002;37.208;2023-04-03T16:55:15;11.75;;;7.55;;
75548;SDS011;64133;56.002;37.208;2023-04-03T17:00:20;14.98;;;7.50;;
75548;SDS011;64133;56.002;37.208;2023-04-03T17:05:25;18.17;;;9.98;;
75548;SDS011;64133;56.002;37.208;2023-04-03T17:10:30;11.70;;;7.33;;
75548;SDS011;64133;56.002;37.208;2023-04-03T17:15:34;11.60;;;7.47;;
75548;SDS011;64133;56.002;37.208;2023-04-03T17:20:39;10.63;;;6.40;;
75548;SDS011;64133;56.002;37.208;2023-04-03T17:25:44;10.75;;;6.33;;
75548;SDS011;64133;56.002;37.208;2023-04-03T17:30:48;11.35;;;6.87;;
75548;SDS011;64133;56.002;37.208;2023-04-03T17:35:58;13.45;;;6.83;;
75548;SDS011;64133;56.002;37.208;2023-04-03T17:41:04;12.47;;;7.47;;
75548;SDS011;64133;56.002;37.208;2023-04-03T17:46:08;11.38;;;6.40;;
75548;SDS011;64133;56.002;37.208;2023-04-03T17:51:13;11.80;;;6.80;;
75548;SDS011;64133;56.002;37.208;2023-04-03T17:56:18;10.28;;;6.65;;
75548;SDS011;64133;56.002;37.208;2023-04-03T18:01:22;12.07;;;7.40;;
75548;SDS011;64133;56.002;37.208;2023-04-03T18:06:30;10.85;;;6.47;;
75548;SDS011;64133;56.002;37.208;2023-04-03T18:11:34;16.02;;;7.42;;
75548;SDS011;64133;56.002;37.208;2023-04-03T18:16:39;12.98;;;7.17;;
75548;SDS011;64133;56.002;37.208;2023-04-03T18:21:46;13.90;;;7.05;;
75548;SDS011;64133;56.002;37.208;2023-04-03T18:26:51;14.63;;;7.95;;
75548;SDS011;64133;56.002;37.208;2023-04-03T18:31:55;14.20;;;7.05;;
75548;SDS011;64133;56.002;37.208;2023-04-03T18:37:00;13.53;;;8.25;;
75548;SDS011;64133;56.002;37.208;2023-04-03T18:42:05;11.48;;;7.05;;
75548;SDS011;64133;56.002;37.208;2023-04-03T18:47:10;15.00;;;7.92;;
75548;SDS011;64133;56.002;37.208;2023-04-03T18:52:14;10.72;;;6.55;;
75548;SDS011;64133;56.002;37.208;2023-04-03T18:57:19;12.75;;;7.30;;
75548;SDS011;64133;56.002;37.208;2023-04-03T19:02:24;12.73;;;6.80;;
75548;SDS011;64133;56.002;37.208;2023-04-03T19:07:31;13.68;;;7.30;;
75548;SDS011;64133;56.002;37.208;2023-04-03T19:12:36;13.93;;;7.67;;
75548;SDS011;64133;56.002;37.208;2023-04-03T19:17:40;18.20;;;8.75;;
75548;SDS011;64133;56.002;37.208;2023-04-03T19:22:47;14.58;;;8.03;;
75548;SDS011;64133;56.002;37.208;2023-04-03T19:27:52;14.83;;;8.45;;
75548;SDS011;64133;56.002;37.208;2023-04-03T19:32:57;16.45;;;9.08;;
75548;SDS011;64133;56.002;37.208;2023-04-03T19:38:01;17.02;;;9.18;;
75548;SDS011;64133;56.002;37.208;2023-04-03T19:43:06;19.67;;;9.80;;
75548;SDS011;64133;56.002;37.208;2023-04-03T19:48:11;13.38;;;7.87;;
75548;SDS011;64133;56.002;37.208;2023-04-03T19:53:15;16.25;;;8.85;;
75548;SDS011;64133;56.002;37.208;2023-04-03T19:58:20;17.15;;;9.30;;
75548;SDS011;64133;56.002;37.208;2023-04-03T20:03:34;14.78;;;8.55;;
75548;SDS011;64133;56.002;37.208;2023-04-03T20:08:38;20.57;;;10.53;;
75548;SDS011;64133;56.002;37.208;2023-04-03T20:13:43;16.37;;;8.55;;
75548;SDS011;64133;56.002;37.208;2023-04-03T20:18:48;16.62;;;9.00;;
75548;SDS011;64133;56.002;37.208;2023-04-03T20:23:53;16.90;;;9.10;;
75548;SDS011;64133;56.002;37.208;2023-04-03T20:28:59;17.45;;;9.00;;
75548;SDS011;64133;56.002;37.208;2023-04-03T20:34:02;14.93;;;9.08;;
75548;SDS011;64133;56.002;37.208;2023-04-03T20:39:07;15.78;;;8.85;;
75548;SDS011;64133;56.002;37.208;2023-04-03T20:44:12;18.30;;;9.63;;
75548;SDS011;64133;56.002;37.208;2023-04-03T20:49:16;19.95;;;9.20;;
75548;SDS011;64133;56.002;37.208;2023-04-03T20:54:21;17.85;;;10.30;;
75548;SDS011;64133;56.002;37.208;2023-04-03T20:59:26;18.40;;;9.65;;
75548;SDS011;64133;56.002;37.208;2023-04-03T21:04:32;17.62;;;9.40;;
75548;SDS011;64133;56.002;37.208;2023-04-03T21:20:48;15.88;;;9.00;;
75548;SDS011;64133;56.002;37.208;2023-04-03T21:25:53;17.85;;;9.78;;
75548;SDS011;64133;56.002;37.208;2023-04-03T21:30:57;18.07;;;9.85;;
75548;SDS011;64133;56.002;37.208;2023-04-03T21:36:02;14.60;;;8.20;;
75548;SDS011;64133;56.002;37.208;2023-04-03T21:41:06;18.17;;;9.50;;
75548;SDS011;64133;56.002;37.208;2023-04-03T21:46:11;18.80;;;9.15;;
75548;SDS011;64133;56.002;37.208;2023-04-03T21:51:16;17.57;;;9.15;;
75548;SDS011;64133;56.002;37.208;2023-04-03T21:56:20;14.45;;;8.88;;
75548;SDS011;64133;56.002;37.208;2023-04-03T22:01:26;14.90;;;8.33;;
75548;SDS011;64133;56.002;37.208;2023-04-03T22:06:31;13.95;;;8.83;;
75548;SDS011;64133;56.002;37.208;2023-04-03T22:11:38;16.48;;;8.68;;
75548;SDS011;64133;56.002;37.208;2023-04-03T22:16:43;23.45;;;9.70;;
75548;SDS011;64133;56.002;37.208;2023-04-03T22:21:48;19.85;;;9.25;;
75548;SDS011;64133;56.002;37.208;2023-04-03T22:26:53;14.20;;;8.50;;
75548;SDS011;64133;56.002;37.208;2023-04-03T22:32:00;17.60;;;9.95;;
75548;SDS011;64133;56.002;37.208;2023-04-03T22:37:04;17.15;;;9.50;;
75548;SDS011;64133;56.002;37.208;2023-04-03T22:42:12;18.17;;;9.33;;
75548;SDS011;64133;56.002;37.208;2023-04-03T22:47:16;16.10;;;9.80;;
75548;SDS011;64133;56.002;37.208;2023-04-03T22:52:21;18.45;;;9.18;;
75548;SDS011;64133;56.002;37.208;2023-04-03T22:57:26;16.35;;;8.90;;
75548;SDS011;64133;56.002;37.208;2023-04-03T23:02:32;18.85;;;9.88;;
75548;SDS011;64133;56.002;37.208;2023-04-03T23:12:51;18.32;;;9.43;;
75548;SDS011;64133;56.002;37.208;2023-04-03T23:17:56;19.50;;;9.98;;
75548;SDS011;64133;56.002;37.208;2023-04-03T23:23:00;18.17;;;8.98;;
75548;SDS011;64133;56.002;37.208;2023-04-03T23:28:06;18.07;;;9.58;;
75548;SDS011;64133;56.002;37.208;2023-04-03T23:33:10;17.60;;;9.38;;
75548;SDS011;64133;56.002;37.208;2023-04-03T23:38:15;16.32;;;9.50;;
75548;SDS011;64133;56.002;37.208;2023-04-03T23:43:19;18.60;;;8.63;;
75548;SDS011;64133;56.002;37.208;2023-04-03T23:48:28;19.65;;;8.63;;
75548;SDS011;64133;56.002;37.208;2023-04-03T23:53:32;15.32;;;8.43;;
75548;SDS011;64133;56.002;37.208;2023-04-03T23:58:39;16.15;;;8.68;;
